sensor_id;sensor_type;location;lat;lon;timestamp;temperature;humidity
6291;DHT22;3178;48.730;8.990;2022-09-02T00:00:48;13.50;99.90
6291;DHT22;3178;48.730;8.990;2022-09-02T00:03:14;13.60;99.90
6291;DHT22;3178;48.730;8.990;2022-09-02T00:05:40;13.60;99.90
6291;DHT22;3178;48.730;8.990;2022-09-02T00:08:07;13.70;99.90
6291;DHT22;3178;48.730;8.990;2022-09-02T00:10:36;13.70;99.90
6291;DHT22;3178;48.730;8.990;2022-09-02T00:13:02;13.80;99.90
6291;DHT22;3178;48.730;8.990;2022-09-02T00:15:27;13.80;99.90
6291;DHT22;3178;48.730;8.990;2022-09-02T00:17:53;13.80;99.90
6291;DHT22;3178;48.730;8.990;2022-09-02T00:20:19;13.80;99.90
6291;DHT22;3178;48.730;8.990;2022-09-02T00:22:45;13.70;99.90
6291;DHT22;3178;48.730;8.990;2022-09-02T00:25:11;13.70;99.90
6291;DHT22;3178;48.730;8.990;2022-09-02T00:27:37;13.60;99.90
6291;DHT22;3178;48.730;8.990;2022-09-02T00:30:04;13.50;99.90
6291;DHT22;3178;48.730;8.990;2022-09-02T00:32:30;13.50;99.90
6291;DHT22;3178;48.730;8.990;2022-09-02T00:34:56;13.40;99.90
6291;DHT22;3178;48.730;8.990;2022-09-02T00:37:24;13.30;99.90
6291;DHT22;3178;48.730;8.990;2022-09-02T00:39:50;13.30;99.90
6291;DHT22;3178;48.730;8.990;2022-09-02T00:42:17;13.20;99.90
6291;DHT22;3178;48.730;8.990;2022-09-02T00:44:43;13.20;99.90
6291;DHT22;3178;48.730;8.990;2022-09-02T00:47:08;13.10;99.90
6291;DHT22;3178;48.730;8.990;2022-09-02T00:49:38;13.10;99.90
6291;DHT22;3178;48.730;8.990;2022-09-02T00:52:10;13.00;99.90
6291;DHT22;3178;48.730;8.990;2022-09-02T00:57:26;13.00;99.90
6291;DHT22;3178;48.730;8.990;2022-09-02T01:02:26;12.90;99.90
6291;DHT22;3178;48.730;8.990;2022-09-02T01:04:53;13.00;99.90
6291;DHT22;3178;48.730;8.990;2022-09-02T01:07:24;12.80;99.90
6291;DHT22;3178;48.730;8.990;2022-09-02T01:09:53;12.80;99.90
6291;DHT22;3178;48.730;8.990;2022-09-02T01:12:20;12.70;99.90
6291;DHT22;3178;48.730;8.990;2022-09-02T01:14:46;12.70;99.90
6291;DHT22;3178;48.730;8.990;2022-09-02T01:17:12;12.70;99.90
6291;DHT22;3178;48.730;8.990;2022-09-02T01:19:42;12.60;99.90
6291;DHT22;3178;48.730;8.990;2022-09-02T01:22:22;12.60;99.90
6291;DHT22;3178;48.730;8.990;2022-09-02T01:24:48;12.50;99.90
6291;DHT22;3178;48.730;8.990;2022-09-02T01:27:19;12.60;99.90
6291;DHT22;3178;48.730;8.990;2022-09-02T01:29:53;12.60;99.90
6291;DHT22;3178;48.730;8.990;2022-09-02T01:32:20;12.50;99.90
6291;DHT22;3178;48.730;8.990;2022-09-02T01:34:46;12.50;99.90
6291;DHT22;3178;48.730;8.990;2022-09-02T01:37:12;12.40;99.90
6291;DHT22;3178;48.730;8.990;2022-09-02T01:39:38;12.40;99.90
6291;DHT22;3178;48.730;8.990;2022-09-02T01:42:04;12.30;99.90
6291;DHT22;3178;48.730;8.990;2022-09-02T01:44:29;12.30;99.90
6291;DHT22;3178;48.730;8.990;2022-09-02T01:46:55;12.20;99.90
6291;DHT22;3178;48.730;8.990;2022-09-02T01:49:21;12.20;99.90
6291;DHT22;3178;48.730;8.990;2022-09-02T01:51:46;12.20;99.90
6291;DHT22;3178;48.730;8.990;2022-09-02T01:54:12;12.30;99.90
6291;DHT22;3178;48.730;8.990;2022-09-02T01:56:38;12.10;99.90
6291;DHT22;3178;48.730;8.990;2022-09-02T01:59:03;12.10;99.90
6291;DHT22;3178;48.730;8.990;2022-09-02T02:01:33;12.10;99.90
6291;DHT22;3178;48.730;8.990;2022-09-02T02:03:59;12.00;99.90
6291;DHT22;3178;48.730;8.990;2022-09-02T02:06:26;12.00;99.90
6291;DHT22;3178;48.730;8.990;2022-09-02T02:08:52;12.00;99.90
6291;DHT22;3178;48.730;8.990;2022-09-02T02:11:21;12.00;99.90
6291;DHT22;3178;48.730;8.990;2022-09-02T02:13:47;11.90;99.90
6291;DHT22;3178;48.730;8.990;2022-09-02T02:16:13;11.90;99.90
6291;DHT22;3178;48.730;8.990;2022-09-02T02:18:38;11.90;99.90
6291;DHT22;3178;48.730;8.990;2022-09-02T02:21:04;11.90;99.90
6291;DHT22;3178;48.730;8.990;2022-09-02T02:23:30;11.90;99.90
6291;DHT22;3178;48.730;8.990;2022-09-02T02:25:55;11.80;99.90
6291;DHT22;3178;48.730;8.990;2022-09-02T02:28:21;11.80;99.90
6291;DHT22;3178;48.730;8.990;2022-09-02T02:30:47;11.70;99.90
6291;DHT22;3178;48.730;8.990;2022-09-02T02:33:13;11.70;99.90
6291;DHT22;3178;48.730;8.990;2022-09-02T02:35:39;11.80;99.90
6291;DHT22;3178;48.730;8.990;2022-09-02T02:38:05;11.80;99.90
6291;DHT22;3178;48.730;8.990;2022-09-02T02:40:31;11.80;99.90
6291;DHT22;3178;48.730;8.990;2022-09-02T02:42:57;11.70;99.90
6291;DHT22;3178;48.730;8.990;2022-09-02T02:45:23;11.80;99.90
6291;DHT22;3178;48.730;8.990;2022-09-02T02:47:49;11.70;99.90
6291;DHT22;3178;48.730;8.990;2022-09-02T02:50:18;11.70;99.90
6291;DHT22;3178;48.730;8.990;2022-09-02T02:52:45;11.70;99.90
6291;DHT22;3178;48.730;8.990;2022-09-02T02:55:12;11.70;99.90
6291;DHT22;3178;48.730;8.990;2022-09-02T02:57:39;11.60;99.90
6291;DHT22;3178;48.730;8.990;2022-09-02T03:00:11;11.60;99.90
6291;DHT22;3178;48.730;8.990;2022-09-02T03:02:37;11.60;99.90
6291;DHT22;3178;48.730;8.990;2022-09-02T03:05:05;11.50;99.90
6291;DHT22;3178;48.730;8.990;2022-09-02T03:07:32;11.50;99.90
6291;DHT22;3178;48.730;8.990;2022-09-02T03:09:58;11.50;99.90
6291;DHT22;3178;48.730;8.990;2022-09-02T03:12:24;11.50;99.90
6291;DHT22;3178;48.730;8.990;2022-09-02T03:14:49;11.40;99.90
6291;DHT22;3178;48.730;8.990;2022-09-02T03:17:15;11.40;99.90
6291;DHT22;3178;48.730;8.990;2022-09-02T03:19:41;11.40;99.90
6291;DHT22;3178;48.730;8.990;2022-09-02T03:22:06;11.40;99.90
6291;DHT22;3178;48.730;8.990;2022-09-02T03:24:32;11.40;99.90
6291;DHT22;3178;48.730;8.990;2022-09-02T03:26:58;11.40;99.90
6291;DHT22;3178;48.730;8.990;2022-09-02T03:29:23;11.40;99.90
6291;DHT22;3178;48.730;8.990;2022-09-02T03:31:49;11.40;99.90
6291;DHT22;3178;48.730;8.990;2022-09-02T03:34:14;11.30;99.90
6291;DHT22;3178;48.730;8.990;2022-09-02T03:36:40;11.30;99.90
6291;DHT22;3178;48.730;8.990;2022-09-02T03:39:09;11.30;99.90
6291;DHT22;3178;48.730;8.990;2022-09-02T03:41:35;11.20;99.90
6291;DHT22;3178;48.730;8.990;2022-09-02T03:44:00;11.20;99.90
6291;DHT22;3178;48.730;8.990;2022-09-02T03:46:26;11.20;99.90
6291;DHT22;3178;48.730;8.990;2022-09-02T03:48:52;11.20;99.90
6291;DHT22;3178;48.730;8.990;2022-09-02T03:51:25;11.20;99.90
6291;DHT22;3178;48.730;8.990;2022-09-02T03:53:50;11.20;99.90
6291;DHT22;3178;48.730;8.990;2022-09-02T03:56:17;11.20;99.90
6291;DHT22;3178;48.730;8.990;2022-09-02T03:58:45;11.10;99.90
6291;DHT22;3178;48.730;8.990;2022-09-02T04:01:16;11.10;99.90
6291;DHT22;3178;48.730;8.990;2022-09-02T04:03:43;11.10;99.90
6291;DHT22;3178;48.730;8.990;2022-09-02T04:06:11;11.10;99.90
6291;DHT22;3178;48.730;8.990;2022-09-02T04:08:39;11.10;99.90
6291;DHT22;3178;48.730;8.990;2022-09-02T04:11:07;11.10;99.90
6291;DHT22;3178;48.730;8.990;2022-09-02T04:13:33;11.10;99.90
6291;DHT22;3178;48.730;8.990;2022-09-02T04:16:04;11.00;99.90
6291;DHT22;3178;48.730;8.990;2022-09-02T04:18:29;11.10;99.90
6291;DHT22;3178;48.730;8.990;2022-09-02T04:20:59;11.00;99.90
6291;DHT22;3178;48.730;8.990;2022-09-02T04:23:25;11.00;99.90
6291;DHT22;3178;48.730;8.990;2022-09-02T04:25:50;11.00;99.90
6291;DHT22;3178;48.730;8.990;2022-09-02T04:28:16;11.00;99.90
6291;DHT22;3178;48.730;8.990;2022-09-02T04:30:42;11.00;99.90
6291;DHT22;3178;48.730;8.990;2022-09-02T04:33:08;11.00;99.90
6291;DHT22;3178;48.730;8.990;2022-09-02T04:35:33;11.00;99.90
6291;DHT22;3178;48.730;8.990;2022-09-02T04:38:02;11.00;99.90
6291;DHT22;3178;48.730;8.990;2022-09-02T04:40:27;10.90;99.90
6291;DHT22;3178;48.730;8.990;2022-09-02T04:42:53;10.90;99.90
6291;DHT22;3178;48.730;8.990;2022-09-02T04:45:20;10.90;99.90
6291;DHT22;3178;48.730;8.990;2022-09-02T04:47:46;10.90;99.90
6291;DHT22;3178;48.730;8.990;2022-09-02T04:50:11;10.80;99.90
6291;DHT22;3178;48.730;8.990;2022-09-02T04:52:37;10.80;99.90
6291;DHT22;3178;48.730;8.990;2022-09-02T04:55:02;10.80;99.90
6291;DHT22;3178;48.730;8.990;2022-09-02T04:57:29;10.90;99.90
6291;DHT22;3178;48.730;8.990;2022-09-02T04:59:55;10.80;99.90
6291;DHT22;3178;48.730;8.990;2022-09-02T05:02:21;10.90;99.90
6291;DHT22;3178;48.730;8.990;2022-09-02T05:04:47;10.90;99.90
6291;DHT22;3178;48.730;8.990;2022-09-02T05:07:13;11.10;99.90
6291;DHT22;3178;48.730;8.990;2022-09-02T05:09:40;10.90;99.90
6291;DHT22;3178;48.730;8.990;2022-09-02T05:12:06;10.90;99.90
6291;DHT22;3178;48.730;8.990;2022-09-02T05:14:32;10.90;99.90
6291;DHT22;3178;48.730;8.990;2022-09-02T05:16:57;11.00;99.90
6291;DHT22;3178;48.730;8.990;2022-09-02T05:19:24;11.00;99.90
6291;DHT22;3178;48.730;8.990;2022-09-02T05:21:51;11.00;99.90
6291;DHT22;3178;48.730;8.990;2022-09-02T05:24:20;11.00;99.90
6291;DHT22;3178;48.730;8.990;2022-09-02T05:26:46;11.10;99.90
6291;DHT22;3178;48.730;8.990;2022-09-02T05:29:13;11.10;99.90
6291;DHT22;3178;48.730;8.990;2022-09-02T05:31:39;11.10;99.90
6291;DHT22;3178;48.730;8.990;2022-09-02T05:34:06;11.20;99.90
6291;DHT22;3178;48.730;8.990;2022-09-02T05:36:33;11.20;99.90
6291;DHT22;3178;48.730;8.990;2022-09-02T05:38:59;11.20;99.90
6291;DHT22;3178;48.730;8.990;2022-09-02T05:41:25;11.20;99.90
6291;DHT22;3178;48.730;8.990;2022-09-02T05:43:54;11.30;99.90
6291;DHT22;3178;48.730;8.990;2022-09-02T05:46:22;11.40;99.90
6291;DHT22;3178;48.730;8.990;2022-09-02T05:48:49;11.40;99.90
6291;DHT22;3178;48.730;8.990;2022-09-02T05:51:42;11.60;99.90
6291;DHT22;3178;48.730;8.990;2022-09-02T05:54:11;11.70;99.90
6291;DHT22;3178;48.730;8.990;2022-09-02T05:56:42;11.90;99.90
6291;DHT22;3178;48.730;8.990;2022-09-02T05:59:07;12.10;99.90
6291;DHT22;3178;48.730;8.990;2022-09-02T06:01:35;12.40;99.90
6291;DHT22;3178;48.730;8.990;2022-09-02T06:04:02;12.60;99.90
6291;DHT22;3178;48.730;8.990;2022-09-02T06:06:28;12.80;99.90
6291;DHT22;3178;48.730;8.990;2022-09-02T06:08:54;13.00;99.90
6291;DHT22;3178;48.730;8.990;2022-09-02T06:11:20;13.30;99.90
6291;DHT22;3178;48.730;8.990;2022-09-02T06:13:47;13.50;99.90
6291;DHT22;3178;48.730;8.990;2022-09-02T06:16:18;13.70;99.90
6291;DHT22;3178;48.730;8.990;2022-09-02T06:18:45;14.00;99.90
6291;DHT22;3178;48.730;8.990;2022-09-02T06:21:11;14.40;99.90
6291;DHT22;3178;48.730;8.990;2022-09-02T06:23:38;15.00;99.90
6291;DHT22;3178;48.730;8.990;2022-09-02T06:26:06;15.60;99.90
6291;DHT22;3178;48.730;8.990;2022-09-02T06:28:32;16.20;99.90
6291;DHT22;3178;48.730;8.990;2022-09-02T06:30:58;16.40;99.90
6291;DHT22;3178;48.730;8.990;2022-09-02T06:33:23;16.50;99.90
6291;DHT22;3178;48.730;8.990;2022-09-02T06:35:49;16.90;99.90
6291;DHT22;3178;48.730;8.990;2022-09-02T06:38:15;16.90;99.90
6291;DHT22;3178;48.730;8.990;2022-09-02T06:40:49;17.30;99.90
6291;DHT22;3178;48.730;8.990;2022-09-02T06:43:16;17.60;99.90
6291;DHT22;3178;48.730;8.990;2022-09-02T06:45:43;18.20;99.90
6291;DHT22;3178;48.730;8.990;2022-09-02T06:48:09;18.90;99.90
6291;DHT22;3178;48.730;8.990;2022-09-02T06:50:44;19.40;99.90
6291;DHT22;3178;48.730;8.990;2022-09-02T06:53:09;20.20;99.90
6291;DHT22;3178;48.730;8.990;2022-09-02T06:55:38;20.80;99.90
6291;DHT22;3178;48.730;8.990;2022-09-02T06:58:04;21.40;99.90
6291;DHT22;3178;48.730;8.990;2022-09-02T07:00:30;21.80;99.90
6291;DHT22;3178;48.730;8.990;2022-09-02T07:02:59;21.70;99.90
6291;DHT22;3178;48.730;8.990;2022-09-02T07:05:44;22.10;99.90
6291;DHT22;3178;48.730;8.990;2022-09-02T07:08:09;22.60;99.90
6291;DHT22;3178;48.730;8.990;2022-09-02T07:10:39;23.10;99.90
6291;DHT22;3178;48.730;8.990;2022-09-02T07:13:06;23.70;99.90
6291;DHT22;3178;48.730;8.990;2022-09-02T07:15:32;24.10;99.90
6291;DHT22;3178;48.730;8.990;2022-09-02T07:17:58;24.00;99.90
6291;DHT22;3178;48.730;8.990;2022-09-02T07:20:25;23.90;99.90
6291;DHT22;3178;48.730;8.990;2022-09-02T07:22:51;24.00;99.30
6291;DHT22;3178;48.730;8.990;2022-09-02T07:25:17;24.10;99.90
6291;DHT22;3178;48.730;8.990;2022-09-02T07:27:42;24.50;99.50
6291;DHT22;3178;48.730;8.990;2022-09-02T07:30:10;25.20;98.40
6291;DHT22;3178;48.730;8.990;2022-09-02T07:32:37;25.50;97.30
6291;DHT22;3178;48.730;8.990;2022-09-02T07:35:04;25.90;95.80
6291;DHT22;3178;48.730;8.990;2022-09-02T07:37:30;25.90;94.50
6291;DHT22;3178;48.730;8.990;2022-09-02T07:39:56;25.90;94.20
6291;DHT22;3178;48.730;8.990;2022-09-02T07:42:22;25.70;94.80
6291;DHT22;3178;48.730;8.990;2022-09-02T07:44:48;26.40;94.20
6291;DHT22;3178;48.730;8.990;2022-09-02T07:47:14;27.50;93.30
6291;DHT22;3178;48.730;8.990;2022-09-02T07:49:40;27.40;90.60
6291;DHT22;3178;48.730;8.990;2022-09-02T07:52:05;27.20;89.00
6291;DHT22;3178;48.730;8.990;2022-09-02T07:54:31;26.60;90.60
6291;DHT22;3178;48.730;8.990;2022-09-02T07:56:56;26.60;89.80
6291;DHT22;3178;48.730;8.990;2022-09-02T07:59:23;26.50;88.40
6291;DHT22;3178;48.730;8.990;2022-09-02T08:01:50;26.60;88.50
6291;DHT22;3178;48.730;8.990;2022-09-02T08:04:18;26.80;87.00
6291;DHT22;3178;48.730;8.990;2022-09-02T08:06:44;26.60;86.20
6291;DHT22;3178;48.730;8.990;2022-09-02T08:09:10;27.20;84.70
6291;DHT22;3178;48.730;8.990;2022-09-02T08:11:43;27.20;83.30
6291;DHT22;3178;48.730;8.990;2022-09-02T08:14:11;26.80;83.80
6291;DHT22;3178;48.730;8.990;2022-09-02T08:16:38;26.30;85.10
6291;DHT22;3178;48.730;8.990;2022-09-02T08:19:05;26.80;84.70
6291;DHT22;3178;48.730;8.990;2022-09-02T08:21:30;27.10;81.10
6291;DHT22;3178;48.730;8.990;2022-09-02T08:23:56;26.70;80.90
6291;DHT22;3178;48.730;8.990;2022-09-02T08:26:23;26.60;81.10
6291;DHT22;3178;48.730;8.990;2022-09-02T08:28:49;26.50;80.40
6291;DHT22;3178;48.730;8.990;2022-09-02T08:31:15;26.90;80.30
6291;DHT22;3178;48.730;8.990;2022-09-02T08:33:40;27.10;80.00
6291;DHT22;3178;48.730;8.990;2022-09-02T08:36:08;27.10;78.00
6291;DHT22;3178;48.730;8.990;2022-09-02T08:38:36;27.10;77.20
6291;DHT22;3178;48.730;8.990;2022-09-02T08:41:03;27.00;78.00
6291;DHT22;3178;48.730;8.990;2022-09-02T08:43:41;27.00;77.90
6291;DHT22;3178;48.730;8.990;2022-09-02T08:46:11;27.70;76.90
6291;DHT22;3178;48.730;8.990;2022-09-02T08:48:51;28.20;76.20
6291;DHT22;3178;48.730;8.990;2022-09-02T08:51:32;28.80;76.90
6291;DHT22;3178;48.730;8.990;2022-09-02T08:54:22;29.10;74.10
6291;DHT22;3178;48.730;8.990;2022-09-02T08:56:50;28.70;74.60
6291;DHT22;3178;48.730;8.990;2022-09-02T08:59:20;28.00;74.70
6291;DHT22;3178;48.730;8.990;2022-09-02T09:10:08;26.10;76.50
6291;DHT22;3178;48.730;8.990;2022-09-02T09:15:21;25.00;79.90
6291;DHT22;3178;48.730;8.990;2022-09-02T09:17:55;24.70;80.20
6291;DHT22;3178;48.730;8.990;2022-09-02T09:20:29;24.50;79.70
6291;DHT22;3178;48.730;8.990;2022-09-02T09:22:58;24.60;81.90
6291;DHT22;3178;48.730;8.990;2022-09-02T09:25:25;24.70;81.80
6291;DHT22;3178;48.730;8.990;2022-09-02T09:27:58;24.50;83.10
6291;DHT22;3178;48.730;8.990;2022-09-02T09:30:25;24.50;81.50
6291;DHT22;3178;48.730;8.990;2022-09-02T09:32:54;24.30;82.30
6291;DHT22;3178;48.730;8.990;2022-09-02T09:35:22;24.60;82.30
6291;DHT22;3178;48.730;8.990;2022-09-02T09:37:50;24.60;80.70
6291;DHT22;3178;48.730;8.990;2022-09-02T09:43:09;24.50;81.20
6291;DHT22;3178;48.730;8.990;2022-09-02T09:50:45;24.70;81.80
6291;DHT22;3178;48.730;8.990;2022-09-02T10:03:55;24.90;80.80
6291;DHT22;3178;48.730;8.990;2022-09-02T10:08:58;24.80;80.70
6291;DHT22;3178;48.730;8.990;2022-09-02T10:11:29;24.90;79.80
6291;DHT22;3178;48.730;8.990;2022-09-02T10:14:08;25.20;80.10
6291;DHT22;3178;48.730;8.990;2022-09-02T10:17:02;26.10;81.70
6291;DHT22;3178;48.730;8.990;2022-09-02T10:19:37;27.30;75.90
6291;DHT22;3178;48.730;8.990;2022-09-02T10:30:25;29.70;66.40
6291;DHT22;3178;48.730;8.990;2022-09-02T10:35:48;30.40;63.30
6291;DHT22;3178;48.730;8.990;2022-09-02T10:38:36;29.80;61.60
6291;DHT22;3178;48.730;8.990;2022-09-02T10:41:25;29.30;61.80
6291;DHT22;3178;48.730;8.990;2022-09-02T10:46:42;29.40;65.00
6291;DHT22;3178;48.730;8.990;2022-09-02T10:57:34;28.90;61.40
6291;DHT22;3178;48.730;8.990;2022-09-02T11:00:18;28.20;63.60
6291;DHT22;3178;48.730;8.990;2022-09-02T11:02:50;28.10;66.30
6291;DHT22;3178;48.730;8.990;2022-09-02T11:05:28;28.00;64.50
6291;DHT22;3178;48.730;8.990;2022-09-02T11:10:34;28.10;64.80
6291;DHT22;3178;48.730;8.990;2022-09-02T11:13:20;27.70;62.60
6291;DHT22;3178;48.730;8.990;2022-09-02T11:15:51;27.40;63.80
6291;DHT22;3178;48.730;8.990;2022-09-02T11:18:45;27.30;64.40
6291;DHT22;3178;48.730;8.990;2022-09-02T11:24:29;27.00;64.70
6291;DHT22;3178;48.730;8.990;2022-09-02T11:27:17;26.90;66.20
6291;DHT22;3178;48.730;8.990;2022-09-02T11:35:09;26.70;65.60
6291;DHT22;3178;48.730;8.990;2022-09-02T11:37:49;26.60;66.30
6291;DHT22;3178;48.730;8.990;2022-09-02T11:40:32;26.70;65.00
6291;DHT22;3178;48.730;8.990;2022-09-02T11:49:24;26.90;63.00
6291;DHT22;3178;48.730;8.990;2022-09-02T11:54:54;26.60;65.00
6291;DHT22;3178;48.730;8.990;2022-09-02T11:57:24;26.60;64.90
6291;DHT22;3178;48.730;8.990;2022-09-02T12:13:33;26.40;63.60
6291;DHT22;3178;48.730;8.990;2022-09-02T12:18:37;25.70;64.30
6291;DHT22;3178;48.730;8.990;2022-09-02T12:21:05;25.60;65.00
6291;DHT22;3178;48.730;8.990;2022-09-02T12:26:14;25.40;63.10
6291;DHT22;3178;48.730;8.990;2022-09-02T12:28:42;25.40;65.00
6291;DHT22;3178;48.730;8.990;2022-09-02T12:31:53;25.40;67.40
6291;DHT22;3178;48.730;8.990;2022-09-02T12:34:00;25.30;65.60
6291;DHT22;3178;48.730;8.990;2022-09-02T12:52:48;25.00;69.30
6291;DHT22;3178;48.730;8.990;2022-09-02T12:55:27;25.20;69.10
6291;DHT22;3178;48.730;8.990;2022-09-02T12:58:19;25.20;67.70
6291;DHT22;3178;48.730;8.990;2022-09-02T13:01:05;25.10;70.00
6291;DHT22;3178;48.730;8.990;2022-09-02T13:06:31;25.10;71.10
6291;DHT22;3178;48.730;8.990;2022-09-02T13:31:24;24.60;71.90
6291;DHT22;3178;48.730;8.990;2022-09-02T13:34:11;24.40;71.70
6291;DHT22;3178;48.730;8.990;2022-09-02T13:36:42;24.30;71.80
6291;DHT22;3178;48.730;8.990;2022-09-02T13:39:19;24.20;71.80
6291;DHT22;3178;48.730;8.990;2022-09-02T13:41:48;24.10;75.00
6291;DHT22;3178;48.730;8.990;2022-09-02T13:44:28;24.20;75.40
6291;DHT22;3178;48.730;8.990;2022-09-02T13:47:02;24.40;73.80
6291;DHT22;3178;48.730;8.990;2022-09-02T13:49:34;24.50;73.20
6291;DHT22;3178;48.730;8.990;2022-09-02T13:52:01;24.50;73.60
6291;DHT22;3178;48.730;8.990;2022-09-02T13:54:36;24.40;72.60
6291;DHT22;3178;48.730;8.990;2022-09-02T13:57:06;24.30;72.60
6291;DHT22;3178;48.730;8.990;2022-09-02T13:59:47;24.20;71.30
6291;DHT22;3178;48.730;8.990;2022-09-02T14:02:32;24.30;72.90
6291;DHT22;3178;48.730;8.990;2022-09-02T14:05:13;24.40;72.40
6291;DHT22;3178;48.730;8.990;2022-09-02T14:07:45;24.60;74.40
6291;DHT22;3178;48.730;8.990;2022-09-02T14:10:15;24.40;74.00
6291;DHT22;3178;48.730;8.990;2022-09-02T14:12:42;24.10;73.50
6291;DHT22;3178;48.730;8.990;2022-09-02T14:15:11;24.10;75.70
6291;DHT22;3178;48.730;8.990;2022-09-02T14:17:38;24.00;75.00
6291;DHT22;3178;48.730;8.990;2022-09-02T14:20:18;24.10;76.30
6291;DHT22;3178;48.730;8.990;2022-09-02T14:22:55;24.10;78.40
6291;DHT22;3178;48.730;8.990;2022-09-02T14:25:22;24.20;76.00
6291;DHT22;3178;48.730;8.990;2022-09-02T14:27:53;24.20;75.60
6291;DHT22;3178;48.730;8.990;2022-09-02T14:36:00;24.00;76.10
6291;DHT22;3178;48.730;8.990;2022-09-02T14:38:28;24.20;76.60
6291;DHT22;3178;48.730;8.990;2022-09-02T14:41:09;24.20;76.30
6291;DHT22;3178;48.730;8.990;2022-09-02T14:43:54;24.10;76.10
6291;DHT22;3178;48.730;8.990;2022-09-02T14:46:25;24.00;76.90
6291;DHT22;3178;48.730;8.990;2022-09-02T14:48:58;23.90;76.50
6291;DHT22;3178;48.730;8.990;2022-09-02T14:51:38;23.90;78.70
6291;DHT22;3178;48.730;8.990;2022-09-02T14:54:07;24.00;77.60
6291;DHT22;3178;48.730;8.990;2022-09-02T14:56:48;24.10;77.20
6291;DHT22;3178;48.730;8.990;2022-09-02T14:59:14;24.10;79.00
6291;DHT22;3178;48.730;8.990;2022-09-02T15:01:46;24.10;76.40
6291;DHT22;3178;48.730;8.990;2022-09-02T15:04:13;23.90;76.70
6291;DHT22;3178;48.730;8.990;2022-09-02T15:06:39;23.80;77.00
6291;DHT22;3178;48.730;8.990;2022-09-02T15:09:04;23.70;77.90
6291;DHT22;3178;48.730;8.990;2022-09-02T15:11:30;23.80;77.50
6291;DHT22;3178;48.730;8.990;2022-09-02T15:13:56;23.70;77.40
6291;DHT22;3178;48.730;8.990;2022-09-02T15:16:21;23.60;78.10
6291;DHT22;3178;48.730;8.990;2022-09-02T15:18:47;23.60;77.60
6291;DHT22;3178;48.730;8.990;2022-09-02T15:21:13;23.50;77.30
6291;DHT22;3178;48.730;8.990;2022-09-02T15:23:38;23.30;77.60
6291;DHT22;3178;48.730;8.990;2022-09-02T15:26:05;23.40;77.40
6291;DHT22;3178;48.730;8.990;2022-09-02T15:28:31;23.30;77.90
6291;DHT22;3178;48.730;8.990;2022-09-02T15:31:00;23.40;79.10
6291;DHT22;3178;48.730;8.990;2022-09-02T15:33:27;23.50;78.60
6291;DHT22;3178;48.730;8.990;2022-09-02T15:35:53;23.50;78.20
6291;DHT22;3178;48.730;8.990;2022-09-02T15:38:19;23.40;78.80
6291;DHT22;3178;48.730;8.990;2022-09-02T15:40:45;23.30;77.80
6291;DHT22;3178;48.730;8.990;2022-09-02T15:43:11;23.30;78.00
6291;DHT22;3178;48.730;8.990;2022-09-02T15:45:44;23.20;77.90
6291;DHT22;3178;48.730;8.990;2022-09-02T15:48:13;23.10;78.00
6291;DHT22;3178;48.730;8.990;2022-09-02T15:50:38;23.10;79.90
6291;DHT22;3178;48.730;8.990;2022-09-02T15:53:04;23.10;81.40
6291;DHT22;3178;48.730;8.990;2022-09-02T15:55:33;23.10;79.00
6291;DHT22;3178;48.730;8.990;2022-09-02T15:57:59;22.90;78.90
6291;DHT22;3178;48.730;8.990;2022-09-02T16:00:25;22.80;80.40
6291;DHT22;3178;48.730;8.990;2022-09-02T16:02:51;22.80;80.50
6291;DHT22;3178;48.730;8.990;2022-09-02T16:05:17;22.70;79.90
6291;DHT22;3178;48.730;8.990;2022-09-02T16:07:42;22.70;81.10
6291;DHT22;3178;48.730;8.990;2022-09-02T16:10:09;22.70;80.90
6291;DHT22;3178;48.730;8.990;2022-09-02T16:12:34;22.70;81.20
6291;DHT22;3178;48.730;8.990;2022-09-02T16:15:00;22.60;81.40
6291;DHT22;3178;48.730;8.990;2022-09-02T16:17:26;22.50;81.00
6291;DHT22;3178;48.730;8.990;2022-09-02T16:19:51;22.50;82.10
6291;DHT22;3178;48.730;8.990;2022-09-02T16:22:18;22.40;82.30
6291;DHT22;3178;48.730;8.990;2022-09-02T16:24:44;22.50;82.50
6291;DHT22;3178;48.730;8.990;2022-09-02T16:27:09;22.40;81.30
6291;DHT22;3178;48.730;8.990;2022-09-02T16:29:35;22.40;83.40
6291;DHT22;3178;48.730;8.990;2022-09-02T16:32:02;22.40;83.20
6291;DHT22;3178;48.730;8.990;2022-09-02T16:34:28;22.30;81.90
6291;DHT22;3178;48.730;8.990;2022-09-02T16:36:53;22.30;83.20
6291;DHT22;3178;48.730;8.990;2022-09-02T16:39:19;22.30;82.30
6291;DHT22;3178;48.730;8.990;2022-09-02T16:41:49;22.20;82.70
6291;DHT22;3178;48.730;8.990;2022-09-02T16:44:24;22.10;83.20
6291;DHT22;3178;48.730;8.990;2022-09-02T16:46:50;22.10;83.10
6291;DHT22;3178;48.730;8.990;2022-09-02T16:49:18;22.00;83.20
6291;DHT22;3178;48.730;8.990;2022-09-02T16:51:45;22.00;84.50
6291;DHT22;3178;48.730;8.990;2022-09-02T16:54:12;22.00;83.70
6291;DHT22;3178;48.730;8.990;2022-09-02T16:56:38;21.90;83.80
6291;DHT22;3178;48.730;8.990;2022-09-02T16:59:06;21.80;83.60
6291;DHT22;3178;48.730;8.990;2022-09-02T17:01:32;21.80;84.80
6291;DHT22;3178;48.730;8.990;2022-09-02T17:03:58;21.80;83.90
6291;DHT22;3178;48.730;8.990;2022-09-02T17:06:27;21.70;84.30
6291;DHT22;3178;48.730;8.990;2022-09-02T17:08:53;21.70;84.70
6291;DHT22;3178;48.730;8.990;2022-09-02T17:11:25;21.70;84.50
6291;DHT22;3178;48.730;8.990;2022-09-02T17:13:59;21.50;84.80
6291;DHT22;3178;48.730;8.990;2022-09-02T17:16:29;21.30;85.30
6291;DHT22;3178;48.730;8.990;2022-09-02T17:18:55;21.30;86.00
6291;DHT22;3178;48.730;8.990;2022-09-02T17:21:28;21.40;87.20
6291;DHT22;3178;48.730;8.990;2022-09-02T17:23:54;21.10;87.40
6291;DHT22;3178;48.730;8.990;2022-09-02T17:26:22;21.00;89.00
6291;DHT22;3178;48.730;8.990;2022-09-02T17:28:48;21.00;87.70
6291;DHT22;3178;48.730;8.990;2022-09-02T17:31:22;20.80;87.80
6291;DHT22;3178;48.730;8.990;2022-09-02T17:33:49;20.90;90.10
6291;DHT22;3178;48.730;8.990;2022-09-02T17:36:15;20.80;90.30
6291;DHT22;3178;48.730;8.990;2022-09-02T17:38:41;20.70;90.90
6291;DHT22;3178;48.730;8.990;2022-09-02T17:41:07;20.60;91.10
6291;DHT22;3178;48.730;8.990;2022-09-02T17:43:51;20.60;90.20
6291;DHT22;3178;48.730;8.990;2022-09-02T17:46:17;20.50;90.70
6291;DHT22;3178;48.730;8.990;2022-09-02T17:48:43;20.30;90.60
6291;DHT22;3178;48.730;8.990;2022-09-02T17:51:08;20.40;90.30
6291;DHT22;3178;48.730;8.990;2022-09-02T17:53:34;20.20;91.10
6291;DHT22;3178;48.730;8.990;2022-09-02T17:58:44;20.10;91.70
6291;DHT22;3178;48.730;8.990;2022-09-02T18:01:13;20.10;90.90
6291;DHT22;3178;48.730;8.990;2022-09-02T18:06:30;19.90;90.70
6291;DHT22;3178;48.730;8.990;2022-09-02T18:08:59;19.90;90.10
6291;DHT22;3178;48.730;8.990;2022-09-02T18:11:27;19.80;90.80
6291;DHT22;3178;48.730;8.990;2022-09-02T18:14:54;19.80;91.00
6291;DHT22;3178;48.730;8.990;2022-09-02T18:19:45;19.70;90.70
6291;DHT22;3178;48.730;8.990;2022-09-02T18:22:36;19.60;90.90
6291;DHT22;3178;48.730;8.990;2022-09-02T18:38:54;19.30;91.70
6291;DHT22;3178;48.730;8.990;2022-09-02T18:47:25;19.20;92.30
6291;DHT22;3178;48.730;8.990;2022-09-02T18:49:54;19.10;92.50
6291;DHT22;3178;48.730;8.990;2022-09-02T18:52:24;19.10;92.70
6291;DHT22;3178;48.730;8.990;2022-09-02T18:57:25;19.00;92.90
6291;DHT22;3178;48.730;8.990;2022-09-02T19:00:00;19.00;93.20
6291;DHT22;3178;48.730;8.990;2022-09-02T19:03:16;19.20;93.40
6291;DHT22;3178;48.730;8.990;2022-09-02T19:05:19;19.00;93.30
6291;DHT22;3178;48.730;8.990;2022-09-02T19:07:50;18.90;93.40
6291;DHT22;3178;48.730;8.990;2022-09-02T19:10:39;18.90;93.60